createdAt,value
2022-07-30T00:01:52.307Z,99.90
2022-07-30T00:04:42.500Z,99.90
2022-07-30T00:07:24.319Z,99.90
2022-07-30T00:10:13.499Z,99.90
2022-07-30T00:12:55.320Z,99.90
2022-07-30T00:15:43.457Z,99.90
2022-07-30T00:18:31.345Z,99.90
2022-07-30T00:21:20.319Z,99.90
2022-07-30T00:24:29.415Z,99.90
2022-07-30T00:27:17.572Z,99.90
2022-07-30T00:30:06.325Z,99.90
2022-07-30T00:32:54.493Z,99.90
2022-07-30T00:35:43.341Z,99.90
2022-07-30T00:38:40.385Z,99.90
2022-07-30T00:41:35.417Z,99.90
2022-07-30T00:44:23.638Z,99.90
2022-07-30T00:47:06.353Z,99.90
2022-07-30T00:49:55.539Z,99.90
2022-07-30T00:52:37.322Z,99.90
2022-07-30T00:55:27.616Z,99.90
2022-07-30T00:58:09.363Z,99.90
2022-07-30T01:00:57.581Z,99.90
2022-07-30T01:03:50.917Z,99.90
2022-07-30T01:06:55.621Z,99.90
2022-07-30T01:09:44.495Z,99.90
2022-07-30T01:12:34.341Z,99.90
2022-07-30T01:15:22.534Z,99.90
2022-07-30T01:18:07.354Z,99.90
2022-07-30T01:21:02.651Z,99.90
2022-07-30T01:23:49.351Z,99.90
2022-07-30T01:26:40.487Z,99.90
2022-07-30T01:29:31.381Z,99.90
2022-07-30T01:32:21.354Z,99.90
2022-07-30T01:35:05.594Z,99.90
2022-07-30T01:38:02.350Z,99.90
2022-07-30T01:40:52.777Z,99.90
2022-07-30T01:43:38.364Z,99.90
2022-07-30T01:46:30.602Z,99.90
2022-07-30T01:49:19.420Z,99.90
2022-07-30T01:52:09.842Z,99.90
2022-07-30T01:55:00.437Z,99.90
2022-07-30T01:57:48.604Z,99.90
2022-07-30T02:00:40.414Z,99.90
2022-07-30T02:03:29.579Z,99.90
2022-07-30T02:06:22.388Z,99.90
2022-07-30T02:09:13.689Z,99.90
2022-07-30T02:12:16.457Z,99.90
2022-07-30T02:15:12.533Z,99.90
2022-07-30T02:18:02.450Z,99.90
2022-07-30T02:20:54.192Z,99.90
2022-07-30T02:23:41.382Z,99.90
2022-07-30T02:26:31.562Z,99.90
2022-07-30T02:29:23.385Z,99.90
2022-07-30T02:32:16.579Z,99.90
2022-07-30T02:35:11.388Z,99.90
2022-07-30T02:38:09.362Z,99.90
2022-07-30T02:40:57.683Z,99.90
2022-07-30T02:43:40.385Z,99.90
2022-07-30T02:46:32.657Z,99.90
2022-07-30T02:49:40.376Z,99.90
2022-07-30T02:52:30.592Z,99.90
2022-07-30T02:55:20.468Z,99.90
2022-07-30T02:58:11.652Z,99.90
2022-07-30T03:01:01.457Z,99.90
2022-07-30T03:03:52.788Z,99.90
2022-07-30T03:06:42.399Z,99.90
2022-07-30T03:09:51.937Z,99.90
2022-07-30T03:12:36.453Z,99.90
2022-07-30T03:15:26.878Z,99.90
2022-07-30T03:18:09.409Z,99.90
2022-07-30T03:21:06.463Z,99.90
2022-07-30T03:23:55.624Z,99.90
2022-07-30T03:26:46.420Z,99.90
2022-07-30T03:29:36.623Z,99.90
2022-07-30T03:32:26.261Z,99.90
2022-07-30T03:35:17.229Z,99.90
2022-07-30T03:38:14.410Z,99.90
2022-07-30T03:41:03.987Z,99.90
2022-07-30T03:43:48.398Z,99.90
2022-07-30T03:46:39.658Z,99.90
2022-07-30T03:49:28.391Z,99.90
2022-07-30T03:52:17.665Z,99.90
2022-07-30T03:55:06.399Z,99.90
2022-07-30T03:57:57.378Z,99.90
2022-07-30T04:00:49.430Z,99.90
2022-07-30T04:03:39.715Z,99.90
2022-07-30T04:06:28.442Z,99.90
2022-07-30T04:09:17.634Z,99.90
2022-07-30T04:11:59.542Z,99.90
2022-07-30T04:14:49.643Z,99.90
2022-07-30T04:17:36.475Z,99.90
2022-07-30T04:20:29.666Z,99.90
2022-07-30T04:23:11.434Z,99.90
2022-07-30T04:25:59.788Z,99.90
2022-07-30T04:28:42.416Z,99.90
2022-07-30T04:31:30.608Z,99.90
2022-07-30T04:34:33.427Z,99.90
2022-07-30T04:37:30.445Z,99.90
2022-07-30T04:40:26.536Z,99.90
2022-07-30T04:43:14.642Z,99.90
2022-07-30T04:46:03.519Z,99.90
2022-07-30T04:48:48.149Z,99.90
2022-07-30T04:51:42.441Z,99.90
2022-07-30T04:54:33.576Z,99.90
2022-07-30T04:57:23.448Z,99.90
2022-07-30T05:00:05.650Z,99.90
2022-07-30T05:02:58.496Z,99.90
2022-07-30T05:05:41.720Z,99.90
2022-07-30T05:08:31.444Z,99.90
2022-07-30T05:11:19.647Z,99.90
2022-07-30T05:14:14.517Z,99.90
2022-07-30T05:17:03.091Z,99.90
2022-07-30T05:19:52.509Z,99.90
2022-07-30T05:22:42.829Z,99.90
2022-07-30T05:25:41.538Z,99.90
2022-07-30T05:28:32.672Z,99.90
2022-07-30T05:31:23.562Z,99.90
2022-07-30T05:34:15.563Z,99.90
2022-07-30T05:36:57.820Z,99.90
2022-07-30T05:40:02.233Z,99.90
2022-07-30T05:43:18.450Z,99.90
2022-07-30T05:46:06.644Z,99.90
2022-07-30T05:48:48.531Z,99.90
2022-07-30T05:51:36.595Z,99.90
2022-07-30T05:54:25.517Z,99.90
2022-07-30T05:57:35.786Z,99.90
2022-07-30T06:00:26.512Z,99.90
2022-07-30T06:03:14.585Z,99.90
2022-07-30T06:06:23.289Z,99.90
2022-07-30T06:09:11.678Z,99.90
2022-07-30T06:11:54.483Z,99.90
2022-07-30T06:14:46.715Z,99.90
2022-07-30T06:17:41.370Z,99.90
2022-07-30T06:20:36.713Z,99.90
2022-07-30T06:23:33.464Z,99.90
2022-07-30T06:26:27.594Z,99.90
2022-07-30T06:29:17.483Z,99.90
2022-07-30T06:32:05.700Z,99.90
2022-07-30T06:35:04.019Z,99.90
2022-07-30T06:38:07.193Z,99.90
2022-07-30T06:41:19.480Z,99.90
2022-07-30T06:44:12.660Z,99.90
2022-07-30T06:47:14.526Z,99.90
2022-07-30T06:50:04.873Z,99.90
2022-07-30T06:52:46.497Z,99.90
2022-07-30T06:55:34.632Z,99.90
2022-07-30T06:58:16.516Z,99.90
2022-07-30T07:01:36.787Z,99.90
2022-07-30T07:04:26.564Z,99.90
2022-07-30T07:07:31.505Z,99.90
2022-07-30T07:10:27.541Z,99.90
2022-07-30T07:13:20.366Z,99.90
2022-07-30T07:16:09.522Z,99.90
2022-07-30T07:19:02.702Z,99.90
2022-07-30T07:21:44.610Z,99.90
2022-07-30T07:24:34.675Z,99.90
2022-07-30T07:27:22.564Z,99.90
2022-07-30T07:30:14.720Z,99.90
2022-07-30T07:32:56.602Z,99.90
2022-07-30T07:35:48.835Z,99.90
2022-07-30T07:38:46.516Z,99.90
2022-07-30T07:41:29.895Z,99.90
2022-07-30T07:44:53.583Z,99.90
2022-07-30T07:47:53.069Z,99.90
2022-07-30T07:51:02.487Z,99.90
2022-07-30T07:54:11.746Z,99.90
2022-07-30T07:57:04.276Z,99.90
2022-07-30T08:00:02.580Z,99.90
2022-07-30T08:02:54.785Z,99.90
2022-07-30T08:05:56.939Z,99.90
2022-07-30T08:09:09.883Z,99.90
2022-07-30T08:12:16.666Z,99.90
2022-07-30T08:15:22.715Z,99.90
2022-07-30T08:18:06.512Z,99.90
2022-07-30T08:21:15.420Z,99.90
2022-07-30T08:23:58.563Z,99.90
2022-07-30T08:26:46.677Z,99.90
2022-07-30T08:29:36.533Z,99.90
2022-07-30T08:32:24.714Z,99.90
2022-07-30T08:35:14.635Z,99.90
2022-07-30T08:38:09.533Z,99.90
2022-07-30T08:41:05.577Z,99.90
2022-07-30T08:43:57.811Z,99.90
2022-07-30T08:46:49.536Z,99.90
2022-07-30T08:50:01.539Z,99.90
2022-07-30T08:52:48.549Z,99.90
2022-07-30T08:55:36.664Z,99.90
2022-07-30T08:58:36.552Z,99.90
2022-07-30T09:01:24.678Z,99.90
2022-07-30T09:04:14.593Z,99.90
2022-07-30T09:07:02.994Z,99.90
2022-07-30T09:09:52.555Z,99.90
2022-07-30T09:12:44.747Z,99.90
2022-07-30T09:15:35.609Z,99.90
2022-07-30T09:18:34.752Z,99.90
2022-07-30T09:21:31.569Z,99.90
2022-07-30T09:24:56.543Z,99.90
2022-07-30T09:27:58.371Z,99.90
2022-07-30T09:31:16.739Z,99.90
2022-07-30T09:34:38.731Z,99.90
2022-07-30T09:38:07.551Z,99.90
2022-07-30T09:41:17.253Z,99.90
2022-07-30T09:44:24.552Z,99.90
2022-07-30T09:47:19.558Z,99.90
2022-07-30T09:50:13.697Z,99.90
2022-07-30T09:53:17.571Z,99.30
2022-07-30T09:56:06.828Z,98.90
2022-07-30T09:58:49.565Z,98.70
2022-07-30T10:02:00.810Z,99.10
2022-07-30T10:05:22.572Z,99.40
2022-07-30T10:08:08.180Z,99.90
2022-07-30T10:11:08.690Z,97.80
2022-07-30T10:14:01.880Z,97.00
2022-07-30T10:16:43.957Z,97.00
2022-07-30T10:19:40.141Z,97.40
2022-07-30T10:22:42.681Z,98.30
2022-07-30T10:25:55.316Z,98.50
2022-07-30T10:28:58.637Z,96.60
2022-07-30T10:31:48.281Z,96.20
2022-07-30T10:34:46.589Z,96.10
2022-07-30T10:37:36.731Z,96.20
2022-07-30T10:40:40.592Z,94.70
2022-07-30T10:43:52.614Z,94.10
2022-07-30T10:46:47.856Z,93.30
2022-07-30T10:49:43.628Z,93.60
2022-07-30T10:52:53.807Z,93.80
2022-07-30T10:55:45.573Z,92.70
2022-07-30T10:58:33.763Z,92.90
2022-07-30T11:01:23.601Z,93.30
2022-07-30T11:04:29.655Z,92.80
2022-07-30T11:07:39.606Z,92.50
2022-07-30T11:10:43.835Z,91.90
2022-07-30T11:13:25.627Z,91.70
2022-07-30T11:16:15.317Z,91.70
2022-07-30T11:19:56.747Z,91.70
2022-07-30T11:22:44.692Z,92.20
2022-07-30T11:25:54.955Z,90.90
2022-07-30T11:28:57.605Z,90.80
2022-07-30T11:31:56.792Z,90.40
2022-07-30T11:34:56.700Z,89.50
2022-07-30T11:38:11.609Z,88.70
2022-07-30T11:41:24.603Z,89.90
2022-07-30T11:44:45.615Z,88.80
2022-07-30T11:47:35.837Z,88.90
2022-07-30T11:50:32.692Z,90.00
2022-07-30T11:53:25.854Z,89.60
2022-07-30T11:56:16.672Z,87.50
2022-07-30T11:59:19.643Z,87.30
2022-07-30T12:02:07.849Z,87.30
2022-07-30T12:04:58.687Z,88.10
2022-07-30T12:07:46.804Z,87.90
2022-07-30T12:10:36.660Z,88.60
2022-07-30T12:13:44.395Z,89.50
2022-07-30T12:16:32.710Z,89.40
2022-07-30T12:19:20.936Z,89.10
2022-07-30T12:22:07.643Z,88.00
2022-07-30T12:24:55.959Z,88.10
2022-07-30T12:27:38.630Z,87.70
2022-07-30T12:30:28.162Z,87.90
2022-07-30T12:33:09.638Z,87.40
2022-07-30T12:35:59.838Z,87.00
2022-07-30T12:39:00.661Z,88.40
2022-07-30T12:41:49.835Z,85.80
2022-07-30T12:44:55.642Z,85.70
2022-07-30T12:47:43.756Z,84.50
2022-07-30T12:50:34.633Z,81.40
2022-07-30T12:53:23.801Z,82.90
2022-07-30T12:56:25.652Z,82.30
2022-07-30T12:59:28.881Z,82.80
2022-07-30T13:02:11.711Z,82.50
2022-07-30T13:05:11.274Z,81.50
2022-07-30T13:08:03.663Z,81.80
2022-07-30T13:11:12.664Z,80.80
2022-07-30T13:14:01.993Z,80.60
2022-07-30T13:16:44.669Z,78.50
2022-07-30T13:19:34.948Z,77.80
2022-07-30T13:22:16.717Z,78.00
2022-07-30T13:25:04.792Z,77.50
2022-07-30T13:27:46.678Z,79.10
2022-07-30T13:30:34.869Z,78.40
2022-07-30T13:33:16.694Z,78.70
2022-07-30T13:36:07.089Z,79.00
2022-07-30T13:38:55.679Z,79.20
2022-07-30T13:41:37.094Z,79.20
2022-07-30T13:44:32.671Z,78.60
2022-07-30T13:47:20.920Z,78.30
2022-07-30T13:50:09.667Z,78.50
2022-07-30T13:53:02.697Z,77.50
2022-07-30T13:55:53.729Z,75.90
2022-07-30T13:58:42.173Z,76.10
2022-07-30T14:01:30.802Z,76.70
2022-07-30T14:04:18.891Z,76.00
2022-07-30T14:07:01.148Z,77.10
2022-07-30T14:09:54.340Z,76.80
2022-07-30T14:12:36.703Z,77.20
2022-07-30T14:15:26.089Z,77.70
2022-07-30T14:18:14.702Z,78.70
2022-07-30T14:20:55.939Z,77.50
2022-07-30T14:23:43.685Z,76.90
2022-07-30T14:26:30.227Z,78.20
2022-07-30T14:29:30.705Z,76.50
2022-07-30T14:32:20.000Z,77.70
2022-07-30T14:35:11.731Z,77.90
2022-07-30T14:37:59.864Z,76.20
2022-07-30T14:40:55.668Z,75.60
2022-07-30T14:43:45.883Z,76.80
2022-07-30T14:46:34.698Z,78.60
2022-07-30T14:49:24.118Z,74.40
2022-07-30T14:52:05.792Z,73.80
2022-07-30T14:54:53.905Z,73.10
2022-07-30T14:57:35.750Z,71.70
2022-07-30T15:00:25.831Z,70.00
2022-07-30T15:03:07.712Z,69.90
2022-07-30T15:05:55.939Z,71.00
2022-07-30T15:08:37.698Z,70.40
2022-07-30T15:11:25.917Z,71.00
2022-07-30T15:14:14.869Z,71.40
2022-07-30T15:17:06.009Z,72.80
2022-07-30T15:19:54.771Z,73.70
2022-07-30T15:22:42.935Z,74.90
2022-07-30T15:25:31.692Z,74.40
2022-07-30T15:28:20.496Z,73.60
2022-07-30T15:31:08.708Z,73.80
2022-07-30T15:33:58.910Z,74.40
2022-07-30T15:36:40.757Z,74.30
2022-07-30T15:39:35.760Z,74.10
2022-07-30T15:42:23.729Z,75.00
2022-07-30T15:45:21.377Z,73.30
2022-07-30T15:48:10.736Z,73.20
2022-07-30T15:50:53.930Z,73.40
2022-07-30T15:53:42.735Z,73.70
2022-07-30T15:56:26.478Z,74.60
2022-07-30T15:59:20.750Z,74.00
2022-07-30T16:02:08.962Z,74.90
2022-07-30T16:04:57.777Z,73.70
2022-07-30T16:07:47.854Z,73.90
2022-07-30T16:10:36.782Z,73.50
2022-07-30T16:13:28.924Z,73.60
2022-07-30T16:16:17.802Z,73.30
2022-07-30T16:19:06.007Z,75.20
2022-07-30T16:21:47.832Z,74.80
2022-07-30T16:24:38.022Z,74.30
2022-07-30T16:27:19.746Z,74.50
2022-07-30T16:30:07.889Z,74.50
2022-07-30T16:32:49.749Z,74.20
2022-07-30T16:35:49.214Z,73.20
2022-07-30T16:38:38.815Z,73.50
2022-07-30T16:41:35.795Z,72.70
2022-07-30T16:44:30.842Z,73.30
2022-07-30T16:47:18.873Z,73.80
2022-07-30T16:50:07.759Z,72.50
2022-07-30T16:52:56.022Z,72.60
2022-07-30T16:55:44.803Z,73.30
2022-07-30T16:59:24.201Z,73.60
2022-07-30T17:02:15.791Z,74.70
2022-07-30T17:10:00.996Z,75.00
2022-07-30T17:16:23.991Z,74.40
2022-07-30T17:22:43.169Z,74.90
2022-07-30T17:25:59.923Z,75.30
2022-07-30T17:28:46.758Z,75.00
2022-07-30T17:31:39.722Z,74.40
2022-07-30T17:34:52.858Z,73.70
2022-07-30T17:38:28.728Z,72.90
2022-07-30T17:41:59.022Z,71.00
2022-07-30T17:45:48.822Z,70.70
2022-07-30T17:48:58.050Z,71.10
2022-07-30T17:51:48.795Z,72.80
2022-07-30T17:54:30.988Z,72.10
2022-07-30T17:57:41.860Z,71.70
2022-07-30T18:00:26.020Z,72.50
2022-07-30T18:03:14.799Z,72.80
2022-07-30T18:06:00.070Z,73.40
2022-07-30T18:08:49.820Z,73.40
2022-07-30T18:11:32.931Z,74.30
2022-07-30T18:14:30.804Z,74.90
2022-07-30T18:17:48.822Z,76.30
2022-07-30T18:20:33.148Z,76.40
2022-07-30T18:23:34.977Z,76.80
2022-07-30T18:26:22.704Z,77.00
2022-07-30T18:29:26.817Z,77.20
2022-07-30T18:32:18.168Z,77.80
2022-07-30T18:35:12.046Z,77.90
2022-07-30T18:38:07.070Z,77.90
2022-07-30T18:41:09.888Z,76.90
2022-07-30T18:43:58.024Z,77.40
2022-07-30T18:46:46.859Z,76.80
2022-07-30T18:49:41.967Z,77.20
2022-07-30T18:52:30.059Z,77.20
2022-07-30T18:55:19.847Z,77.30
2022-07-30T18:58:09.989Z,77.70
2022-07-30T19:00:58.943Z,77.20
2022-07-30T19:03:46.965Z,76.90
2022-07-30T19:06:35.813Z,77.00
2022-07-30T19:09:24.026Z,76.90
2022-07-30T19:12:06.179Z,77.10
2022-07-30T19:14:56.025Z,77.40
2022-07-30T19:17:45.972Z,77.90
2022-07-30T19:20:34.983Z,78.50
2022-07-30T19:23:16.936Z,78.90
2022-07-30T19:26:05.887Z,79.20
2022-07-30T19:28:47.834Z,79.70
2022-07-30T19:31:38.208Z,80.10
2022-07-30T19:34:26.867Z,80.80
2022-07-30T19:37:15.103Z,81.60
2022-07-30T19:40:09.968Z,81.90
2022-07-30T19:43:09.308Z,82.10
2022-07-30T19:45:58.534Z,82.00
2022-07-30T19:48:50.588Z,81.90
2022-07-30T19:52:10.071Z,81.50
2022-07-30T19:55:41.911Z,81.50
2022-07-30T19:58:52.414Z,81.60
2022-07-30T20:01:41.916Z,82.80
2022-07-30T20:04:34.104Z,83.30
2022-07-30T20:07:16.849Z,83.50
2022-07-30T20:10:06.024Z,83.60
2022-07-30T20:12:57.900Z,83.80
2022-07-30T20:16:00.557Z,83.50
2022-07-30T20:18:52.170Z,83.40
2022-07-30T20:21:56.340Z,83.50
2022-07-30T20:24:56.017Z,83.00
2022-07-30T20:27:46.287Z,83.10
2022-07-30T20:30:37.881Z,83.60
2022-07-30T20:33:36.083Z,83.40
2022-07-30T20:36:28.868Z,83.30
2022-07-30T20:39:25.931Z,82.60
2022-07-30T20:42:18.886Z,82.40
2022-07-30T20:45:03.203Z,82.40
2022-07-30T20:47:52.910Z,82.40
2022-07-30T20:50:34.156Z,82.10
2022-07-30T20:53:22.931Z,82.90
2022-07-30T20:56:06.213Z,84.40
2022-07-30T20:58:57.993Z,84.20
2022-07-30T21:01:49.177Z,83.90
2022-07-30T21:05:00.910Z,84.10
2022-07-30T21:07:52.886Z,84.10
2022-07-30T21:10:48.956Z,84.20
2022-07-30T21:13:41.448Z,84.60
2022-07-30T21:16:26.836Z,84.70
2022-07-30T21:19:56.963Z,85.50
2022-07-30T21:22:46.105Z,85.70
2022-07-30T21:26:00.735Z,85.60
2022-07-30T21:28:49.116Z,85.80
2022-07-30T21:32:01.343Z,86.60
2022-07-30T21:34:47.097Z,86.90
2022-07-30T21:37:36.629Z,87.20
2022-07-30T21:40:33.962Z,87.70
2022-07-30T21:43:29.707Z,88.30
2022-07-30T21:46:41.821Z,88.10
2022-07-30T21:49:37.967Z,88.00
2022-07-30T21:52:26.001Z,87.90
2022-07-30T21:55:21.976Z,87.90
2022-07-30T21:58:10.121Z,88.30
2022-07-30T22:01:18.883Z,89.30
2022-07-30T22:04:09.303Z,90.00
2022-07-30T22:06:50.884Z,91.10
2022-07-30T22:09:43.050Z,91.90
2022-07-30T22:12:28.813Z,92.30
2022-07-30T22:15:18.132Z,92.50
2022-07-30T22:18:06.987Z,92.70
2022-07-30T22:20:50.117Z,92.90
2022-07-30T22:23:38.945Z,93.30
2022-07-30T22:26:21.174Z,93.90
2022-07-30T22:29:15.938Z,94.30
2022-07-30T22:32:06.234Z,94.30
2022-07-30T22:34:55.903Z,94.50
2022-07-30T22:37:47.046Z,94.80
2022-07-30T22:40:36.910Z,95.20
2022-07-30T22:43:33.277Z,95.50
2022-07-30T22:46:30.961Z,95.80
2022-07-30T22:49:24.370Z,96.00
2022-07-30T22:52:25.870Z,96.40
2022-07-30T22:55:22.022Z,96.90
2022-07-30T22:58:03.998Z,97.40
2022-07-30T23:00:52.091Z,98.00
2022-07-30T23:03:33.934Z,98.40
2022-07-30T23:06:22.149Z,99.00
2022-07-30T23:09:17.030Z,99.60
2022-07-30T23:12:09.145Z,99.90
2022-07-30T23:14:56.908Z,99.90
2022-07-30T23:17:46.083Z,99.90
2022-07-30T23:20:35.028Z,99.90
2022-07-30T23:23:23.194Z,99.90
2022-07-30T23:26:10.935Z,99.90
2022-07-30T23:29:00.963Z,99.90
2022-07-30T23:31:42.279Z,99.90
2022-07-30T23:34:36.950Z,99.90
2022-07-30T23:37:25.193Z,99.90
2022-07-30T23:40:21.973Z,99.90
2022-07-30T23:43:11.118Z,99.90
2022-07-30T23:46:02.028Z,99.90
2022-07-30T23:48:50.146Z,99.90
2022-07-30T23:51:44.980Z,99.90
2022-07-30T23:54:33.239Z,99.90
2022-07-30T23:57:14.978Z,99.90
